Time;durP1;ratioP1;P1;durP2;ratioP2;P2;SDS_P1;SDS_P2;PMS_P1;PMS_P2;Temp;Humidity;BMP_temperature;BMP_pressure;BME280_temperature;BME280_humidity;BME280_pressure;Samples;Min_cycle;Max_cycle;Signal;HPM_P1;HPM_P2
2022/07/19 00:00:07;;;;;;;2.92;2.20;;;;;;;16.88;100.00;99815.84;5090819;28;20044;-55
2022/07/19 00:02:33;;;;;;;2.70;1.60;;;;;;;16.90;100.00;99811.53;5090523;28;20083;-52
2022/07/19 00:05:00;;;;;;;2.72;1.75;;;;;;;16.97;100.00;99812.72;5090755;28;20146;-55
2022/07/19 00:07:26;;;;;;;3.40;1.52;;;;;;;16.94;100.00;99811.53;5090628;28;20122;-53
2022/07/19 00:09:52;;;;;;;8.18;1.95;;;;;;;16.93;100.00;99813.50;5091150;28;20589;-52
2022/07/19 00:12:19;;;;;;;2.00;1.80;;;;;;;16.88;100.00;99815.84;5090370;28;20688;-53
2022/07/19 00:14:46;;;;;;;3.45;1.85;;;;;;;16.98;100.00;99815.09;5090893;28;20139;-56
2022/07/19 00:17:12;;;;;;;4.57;2.20;;;;;;;16.90;100.00;99808.75;5090435;28;20055;-55
2022/07/19 00:19:38;;;;;;;2.20;1.90;;;;;;;16.90;100.00;99807.97;5090488;28;20059;-53
2022/07/19 00:22:05;;;;;;;4.25;1.33;;;;;;;16.84;100.00;99817.84;5090471;28;20048;-55
2022/07/19 00:24:32;;;;;;;2.58;1.50;;;;;;;16.86;100.00;99812.69;5090309;28;20058;-54
2022/07/19 00:26:58;;;;;;;2.10;1.60;;;;;;;16.87;100.00;99822.59;5090442;28;20554;-53
2022/07/19 00:29:25;;;;;;;1.80;1.60;;;;;;;16.85;100.00;99822.97;5090206;28;20050;-53
2022/07/19 00:31:51;;;;;;;3.38;1.60;;;;;;;16.90;100.00;99825.38;5089597;28;20054;-55
2022/07/19 00:34:18;;;;;;;2.90;1.75;;;;;;;16.82;100.00;99818.19;5089427;28;20052;-52
2022/07/19 00:36:44;;;;;;;6.38;1.70;;;;;;;16.89;100.00;99818.25;5090409;28;20101;-55
2022/07/19 00:39:10;;;;;;;3.80;1.33;;;;;;;16.87;100.00;99825.34;5089805;28;20058;-52
2022/07/19 00:41:40;;;;;;;3.42;1.67;;;;;;;16.89;100.00;99826.56;5090165;28;20179;-52
2022/07/19 00:44:06;;;;;;;6.10;1.67;;;;;;;16.79;100.00;99830.06;5089836;28;20048;-52
2022/07/19 00:46:33;;;;;;;4.53;1.40;;;;;;;16.85;100.00;99831.28;5089915;28;20059;-53
2022/07/19 00:49:00;;;;;;;2.05;1.30;;;;;;;16.64;100.00;99829.19;5090046;28;20086;-53
2022/07/19 00:51:27;;;;;;;3.97;1.50;;;;;;;16.81;100.00;99833.25;5089770;28;20056;-53
2022/07/19 00:53:55;;;;;;;2.00;1.40;;;;;;;16.85;100.00;99831.28;5089896;28;20052;-54
2022/07/19 00:56:22;;;;;;;3.25;1.48;;;;;;;16.81;100.00;99835.22;5089712;28;20048;-54
2022/07/19 00:58:49;;;;;;;1.20;1.10;;;;;;;16.89;100.00;99828.50;5089716;28;20048;-54
2022/07/19 01:01:16;;;;;;;1.50;1.10;;;;;;;16.82;100.00;99826.50;5089679;28;20055;-53
2022/07/19 01:03:43;;;;;;;3.55;1.45;;;;;;;16.84;100.00;99834.44;5089990;28;20487;-53
2022/07/19 01:06:10;;;;;;;2.13;1.27;;;;;;;16.81;100.00;99833.25;5089543;28;20189;-54
2022/07/19 01:08:37;;;;;;;1.10;0.90;;;;;;;16.93;100.00;99827.34;5089835;28;20173;-54
2022/07/19 01:11:04;;;;;;;2.10;1.30;;;;;;;16.85;100.00;99836.03;5089470;28;20067;-52
2022/07/19 01:13:31;;;;;;;6.07;1.02;;;;;;;16.53;100.00;99835.84;5089476;28;20049;-56
2022/07/19 01:15:57;;;;;;;1.15;1.02;;;;;;;16.82;100.00;99839.56;5089640;28;20052;-54
2022/07/19 01:18:23;;;;;;;1.30;1.20;;;;;;;16.89;100.00;99840.41;5089519;28;20056;-55
2022/07/19 01:20:51;;;;;;;2.47;1.33;;;;;;;16.93;100.00;99841.19;5089452;28;20051;-55
2022/07/19 01:23:18;;;;;;;1.30;1.02;;;;;;;16.80;100.00;99837.22;5089440;28;20054;-54
2022/07/19 01:25:44;;;;;;;6.70;1.70;;;;;;;16.59;100.00;99846.16;5089436;28;20056;-52
2022/07/19 01:28:11;;;;;;;2.03;1.35;;;;;;;16.76;100.00;99850.25;5089251;28;20059;-56
2022/07/19 01:30:37;;;;;;;3.03;1.30;;;;;;;16.60;100.00;99853.31;5089715;28;20055;-51
2022/07/19 01:33:04;;;;;;;1.67;1.58;;;;;;;16.74;100.00;99847.03;5089124;28;20124;-56
2022/07/19 01:35:30;;;;;;;3.28;1.30;;;;;;;16.70;100.00;99851.78;5089742;28;20051;-55
2022/07/19 01:37:57;;;;;;;2.00;1.17;;;;;;;16.60;100.00;99849.75;5089150;28;20052;-53
2022/07/19 01:40:24;;;;;;;2.17;1.30;;;;;;;16.79;100.00;99845.88;5089102;28;20052;-55
2022/07/19 01:42:51;;;;;;;3.85;1.40;;;;;;;16.85;100.00;99847.88;5089397;28;20047;-54
2022/07/19 01:45:17;;;;;;;1.77;1.50;;;;;;;16.74;100.00;99841.50;5091944;28;20048;-57
2022/07/19 01:47:44;;;;;;;2.42;1.70;;;;;;;16.83;100.00;99841.97;5092644;28;20058;-56
2022/07/19 01:50:13;;;;;;;4.10;2.00;;;;;;;16.72;100.00;99843.84;5092671;28;20480;-56
2022/07/19 01:52:40;;;;;;;3.42;2.13;;;;;;;16.59;100.00;99843.41;5092765;28;20074;-53
2022/07/19 01:55:07;;;;;;;1.63;1.35;;;;;;;16.68;100.00;99838.31;5092394;28;20143;-54
2022/07/19 01:57:34;;;;;;;3.15;1.70;;;;;;;16.75;100.00;99840.34;5092649;28;20139;-52
2022/07/19 02:00:00;;;;;;;3.78;2.22;;;;;;;16.75;100.00;99847.84;5092313;28;20055;-54
2022/07/19 02:02:27;;;;;;;3.13;1.55;;;;;;;16.46;100.00;99847.69;5092648;28;20124;-53
2022/07/19 02:04:53;;;;;;;2.13;1.50;;;;;;;16.66;100.00;99839.88;5092322;28;20147;-54
2022/07/19 02:07:19;;;;;;;2.45;1.55;;;;;;;16.51;100.00;99841.78;5092534;28;20052;-55
2022/07/19 02:09:45;;;;;;;2.22;1.45;;;;;;;16.64;100.00;99848.56;5092158;28;20131;-53
2022/07/19 02:12:12;;;;;;;5.00;1.80;;;;;;;16.68;100.00;99852.16;5092220;28;20575;-56
2022/07/19 02:14:39;;;;;;;1.65;1.40;;;;;;;16.54;100.00;99849.31;5092260;28;20052;-56
2022/07/19 02:17:05;;;;;;;1.95;1.33;;;;;;;16.62;100.00;99850.13;5092025;28;20052;-54
2022/07/19 02:19:31;;;;;;;3.60;1.80;;;;;;;16.74;100.00;99844.28;5092247;28;20050;-52
2022/07/19 02:21:57;;;;;;;2.53;1.52;;;;;;;16.68;100.00;99852.16;5091991;28;20047;-52
2022/07/19 02:24:24;;;;;;;4.82;1.67;;;;;;;16.69;100.00;99850.16;5091943;28;20059;-53
2022/07/19 02:26:50;;;;;;;2.05;1.42;;;;;;;16.69;100.00;99842.69;5091816;28;20115;-53
2022/07/19 02:29:16;;;;;;;5.40;2.00;;;;;;;16.67;100.00;99850.56;5092269;28;20048;-54
2022/07/19 02:31:44;;;;;;;4.45;1.60;;;;;;;16.58;100.00;99843.81;5091900;28;20500;-53
2022/07/19 02:34:10;;;;;;;4.07;1.83;;;;;;;16.52;100.00;99837.84;5092149;28;20417;-55
2022/07/19 02:36:36;;;;;;;3.78;1.35;;;;;;;16.53;100.00;99833.09;5091972;28;20192;-53
2022/07/19 02:39:03;;;;;;;2.17;1.40;;;;;;;16.54;100.00;99841.03;5092003;28;20134;-52
2022/07/19 02:41:29;;;;;;;1.80;1.58;;;;;;;16.54;100.00;99835.50;5091776;28;20143;-53
2022/07/19 02:43:55;;;;;;;2.70;1.50;;;;;;;16.42;100.00;99844.13;5091538;28;20059;-52
2022/07/19 02:46:21;;;;;;;2.33;1.60;;;;;;;16.43;100.00;99840.97;5091992;28;20062;-53
2022/07/19 02:48:48;;;;;;;3.08;1.48;;;;;;;16.51;100.00;99839.03;5091804;28;20058;-56
2022/07/19 02:51:14;;;;;;;4.25;1.90;;;;;;;16.41;100.00;99845.31;5091829;28;20533;-52
2022/07/19 02:53:41;;;;;;;3.00;1.40;;;;;;;16.62;100.00;99836.31;5091723;28;20573;-52
2022/07/19 02:56:07;;;;;;;3.72;1.42;;;;;;;16.60;100.00;99847.00;5091413;28;20535;-52
2022/07/19 02:58:33;;;;;;;2.75;1.48;;;;;;;16.60;100.00;99850.53;5091509;28;20052;-57
2022/07/19 03:01:00;;;;;;;3.53;1.30;;;;;;;16.59;100.00;99853.69;5091786;28;20048;-53
2022/07/19 03:03:44;;;;;;;4.47;1.50;;;;;;;16.60;100.00;99847.78;5091339;28;20056;-53
2022/07/19 03:06:12;;;;;;;1.58;1.45;;;;;;;16.45;100.00;99857.97;5091325;28;20052;-52
2022/07/19 03:08:38;;;;;;;3.05;1.70;;;;;;;16.54;100.00;99856.84;5091388;28;20507;-54
2022/07/19 03:11:05;;;;;;;2.13;1.50;;;;;;;16.48;100.00;99853.63;5091292;28;20131;-52
2022/07/19 03:13:31;;;;;;;1.92;1.60;;;;;;;16.46;100.00;99854.03;5091386;28;20051;-53
2022/07/19 03:15:57;;;;;;;1.52;1.42;;;;;;;16.44;100.00;99853.63;5091152;28;20056;-56
2022/07/19 03:18:24;;;;;;;4.68;1.55;;;;;;;16.48;100.00;99850.88;5091279;28;20062;-54
2022/07/19 03:20:50;;;;;;;2.25;1.70;;;;;;;16.53;100.00;99844.97;5090893;28;20047;-53
2022/07/19 03:23:17;;;;;;;3.00;1.58;;;;;;;16.67;100.00;99855.31;5091534;28;20055;-55
2022/07/19 03:25:43;;;;;;;3.42;1.70;;;;;;;16.48;100.00;99859.97;5091005;28;20424;-55
2022/07/19 03:28:09;;;;;;;4.03;1.70;;;;;;;16.47;100.00;99857.59;5091373;28;20048;-54
2022/07/19 03:30:35;;;;;;;1.52;1.40;;;;;;;16.80;100.00;99856.59;5090901;28;20434;-56
2022/07/19 03:33:02;;;;;;;2.78;1.95;;;;;;;16.64;100.00;99862.41;5091092;28;20108;-54
2022/07/19 03:35:28;;;;;;;2.55;1.60;;;;;;;16.78;100.00;99858.16;5090991;28;20143;-56
2022/07/19 03:37:54;;;;;;;1.52;1.10;;;;;;;16.89;100.00;99861.75;5090854;28;20404;-52
2022/07/19 03:40:21;;;;;;;1.55;1.45;;;;;;;16.89;100.00;99862.56;5090810;28;20052;-52
2022/07/19 03:42:48;;;;;;;2.03;1.42;;;;;;;16.87;100.00;99856.59;5090951;28;20059;-54
2022/07/19 03:45:14;;;;;;;3.08;1.88;;;;;;;16.86;100.00;99865.28;5090782;28;20138;-54
2022/07/19 03:47:40;;;;;;;2.85;1.73;;;;;;;16.90;100.00;99864.13;5090886;28;20125;-52
2022/07/19 03:50:07;;;;;;;2.92;2.20;;;;;;;16.82;100.00;99867.25;5090974;28;20068;-55
2022/07/19 03:52:33;;;;;;;1.80;1.67;;;;;;;16.89;100.00;99868.09;5091016;28;20426;-57
2022/07/19 03:54:59;;;;;;;3.05;1.83;;;;;;;16.83;100.00;99877.19;5090906;28;20048;-55
2022/07/19 03:57:26;;;;;;;2.05;1.85;;;;;;;16.85;100.00;99872.03;5090559;28;20093;-54
2022/07/19 03:59:52;;;;;;;4.63;1.90;;;;;;;16.89;100.00;99872.81;5090803;28;20047;-56
2022/07/19 04:02:19;;;;;;;1.90;1.42;;;;;;;16.93;100.00;99876.41;5090519;28;20048;-56
2022/07/19 04:04:45;;;;;;;4.13;1.65;;;;;;;16.98;100.00;99878.78;5090599;28;20056;-53
2022/07/19 04:07:11;;;;;;;2.33;1.60;;;;;;;17.01;100.00;99880.78;5090452;28;20110;-52
2022/07/19 04:09:37;;;;;;;2.55;2.05;;;;;;;17.04;100.00;99876.44;5090616;28;20407;-54
2022/07/19 04:12:04;;;;;;;2.58;1.60;;;;;;;16.98;100.00;99878.00;5090496;28;20455;-56
2022/07/19 04:14:31;;;;;;;1.92;1.70;;;;;;;16.90;100.00;99880.75;5090381;28;20055;-55
2022/07/19 04:16:57;;;;;;;4.40;2.20;;;;;;;17.11;100.00;99876.47;5090321;28;20500;-55
2022/07/19 04:19:23;;;;;;;2.03;1.48;;;;;;;17.03;100.00;99877.63;5090290;28;20186;-56
2022/07/19 04:21:49;;;;;;;2.38;1.60;;;;;;;17.06;100.00;99874.06;5090506;28;20048;-54
2022/07/19 04:24:15;;;;;;;4.03;1.42;;;;;;;17.11;100.00;99873.69;5090398;28;20073;-55
2022/07/19 04:26:42;;;;;;;4.82;1.40;;;;;;;17.25;100.00;99879.25;5090450;28;20052;-56
2022/07/19 04:29:08;;;;;;;1.88;1.38;;;;;;;17.18;100.00;99876.47;5090022;28;20059;-56
2022/07/19 04:31:35;;;;;;;2.55;1.52;;;;;;;17.32;100.00;99872.94;5090186;28;20478;-55
2022/07/19 04:34:01;;;;;;;4.20;1.90;;;;;;;17.15;100.00;99874.50;5090109;28;20154;-52
2022/07/19 04:36:27;;;;;;;3.72;1.90;;;;;;;17.34;100.00;99873.34;5089939;28;20060;-55
2022/07/19 04:38:54;;;;;;;2.92;1.45;;;;;;;17.44;100.00;99860.69;5089895;28;20047;-56
2022/07/19 04:41:20;;;;;;;1.95;1.50;;;;;;;17.42;100.00;99850.00;5089912;28;20067;-54
2022/07/19 04:43:46;;;;;;;4.40;1.85;;;;;;;17.29;100.00;99852.34;5089948;28;20403;-56
2022/07/19 04:46:12;;;;;;;3.40;1.83;;;;;;;17.40;100.00;99867.03;5090024;28;20476;-55
2022/07/19 04:48:40;;;;;;;1.65;1.48;;;;;;;17.65;100.00;99853.16;5090149;28;20058;-55
2022/07/19 04:51:07;;;;;;;2.60;1.63;;;;;;;17.63;100.00;99832.59;5089727;28;20056;-54
2022/07/19 04:53:33;;;;;;;4.18;2.20;;;;;;;17.76;100.00;99827.41;5090009;28;20048;-55
2022/07/19 04:55:59;;;;;;;1.50;1.40;;;;;;;17.79;100.00;99829.44;5089382;28;20048;-52
2022/07/19 04:58:25;;;;;;;3.50;1.80;;;;;;;17.87;100.00;99820.72;5089534;28;20052;-53
2022/07/19 05:00:51;;;;;;;4.43;1.90;;;;;;;17.93;100.00;99793.38;5089540;28;20052;-55
2022/07/19 05:03:18;;;;;;;2.85;1.77;;;;;;;17.60;100.00;99805.66;5089441;28;20058;-52
2022/07/19 05:05:45;;;;;;;2.38;1.80;;;;;;;17.63;100.00;99789.03;5089638;28;20048;-53
2022/07/19 05:08:11;;;;;;;4.45;2.40;;;;;;;17.63;100.00;99813.19;5089781;28;20468;-55
2022/07/19 05:10:37;;;;;;;2.95;2.00;;;;;;;17.84;100.00;99792.97;5089649;28;20048;-55
2022/07/19 05:13:03;;;;;;;5.05;1.88;;;;;;;17.93;100.00;99787.03;5089607;28;20143;-56
2022/07/19 05:15:29;;;;;;;2.20;1.80;;;;;;;18.13;100.00;99762.38;5089940;28;20050;-54
2022/07/19 05:17:56;;;;;;;6.40;1.92;;;;;;;18.26;100.00;99753.25;5089651;28;20495;-56
2022/07/19 05:20:22;;;;;;;3.55;2.08;;;;;;;18.41;100.00;99728.19;5092790;28;20102;-54
2022/07/19 05:22:49;;;;;;;5.30;2.22;;;;;;;18.13;100.00;99720.75;5093352;28;20505;-53
2022/07/19 05:25:16;;;;;;;5.85;1.70;;;;;;;18.29;100.00;99710.81;5093339;28;20075;-54
2022/07/19 05:27:43;;;;;;;3.28;1.77;;;;;;;18.84;100.00;99636.31;5093021;28;20054;-56
2022/07/19 05:30:11;;;;;;;2.95;1.80;;;;;;;18.84;100.00;99539.09;5092968;28;20047;-55
2022/07/19 05:32:38;;;;;;;3.50;1.85;;;;;;;18.90;100.00;99445.78;5092982;28;20055;-55
2022/07/19 05:35:05;;;;;;;2.67;2.17;;;;;;;18.74;100.00;99463.00;5092735;28;20048;-53
2022/07/19 05:37:31;;;;;;;3.65;1.80;;;;;;;18.74;100.00;99471.31;5092867;28;20165;-52
2022/07/19 05:39:58;;;;;;;2.53;1.90;;;;;;;18.74;100.00;99477.66;5092741;28;20484;-55
2022/07/19 05:42:25;;;;;;;10.50;1.95;;;;;;;19.22;100.00;99387.00;5093020;28;20047;-52
2022/07/19 05:44:51;;;;;;;3.72;1.80;;;;;;;19.52;100.00;99252.69;5092850;28;20423;-56
2022/07/19 05:47:18;;;;;;;7.90;1.98;;;;;;;19.28;100.00;99204.66;5093042;28;20048;-53
2022/07/19 05:49:44;;;;;;;4.57;2.38;;;;;;;19.36;100.00;99156.09;5092796;28;20048;-53
2022/07/19 05:52:10;;;;;;;3.25;1.70;;;;;;;19.31;100.00;99209.38;5093143;28;20163;-51
2022/07/19 05:54:36;;;;;;;7.05;3.90;;;;;;;20.98;100.00;98991.88;5092797;28;20052;-54
2022/07/19 05:57:04;;;;;;;2.30;2.10;;;;;;;21.33;100.00;98759.47;5092418;28;20058;-52
2022/07/19 05:59:30;;;;;;;2.72;1.83;;;;;;;21.67;100.00;98582.25;5092412;28;20066;-51
2022/07/19 06:01:56;;;;;;;4.53;1.88;;;;;;;21.50;100.00;98534.25;5092001;28;20052;-51
2022/07/19 06:04:22;;;;;;;2.33;1.80;;;;;;;22.33;100.00;98517.97;5092443;28;20047;-50
2022/07/19 06:06:48;;;;;;;5.03;2.05;;;;;;;21.95;100.00;98485.53;5092341;28;20139;-51
2022/07/19 06:09:15;;;;;;;4.82;2.00;;;;;;;21.67;100.00;98495.00;5092567;28;20555;-52
2022/07/19 06:11:42;;;;;;;4.45;2.30;;;;;;;21.19;100.00;98525.78;5092028;28;20052;-51
2022/07/19 06:14:09;;;;;;;4.63;2.83;;;;;;;21.56;100.00;98551.19;5092289;28;20055;-53
2022/07/19 06:16:38;;;;;;;6.05;2.17;;;;;;;23.03;100.00;98448.41;5092100;28;20522;-54
2022/07/19 06:19:04;;;;;;;4.90;2.53;;;;;;;23.90;100.00;98415.28;5092386;28;20109;-54
2022/07/19 06:21:30;;;;;;;2.40;2.10;;;;;;;23.34;100.00;98420.25;5091793;28;20054;-54
2022/07/19 06:23:56;;;;;;;3.05;1.90;;;;;;;22.68;100.00;98431.13;5092061;28;20138;-53
2022/07/19 06:26:23;;;;;;;3.25;2.00;;;;;;;22.40;100.00;98424.75;5092061;28;20056;-52
2022/07/19 06:28:49;;;;;;;2.00;1.75;;;;;;;22.17;100.00;98432.47;5091852;28;20142;-55
2022/07/19 06:31:17;;;;;;;2.88;1.67;;;;;;;22.98;100.00;98426.66;5090988;28;20429;-54
2022/07/19 06:33:45;;;;;;;2.92;1.80;;;;;;;24.16;100.00;98429.59;5091735;28;20055;-53
2022/07/19 06:36:12;;;;;;;3.17;1.60;;;;;;;24.72;100.00;98455.25;5092000;28;20418;-54
2022/07/19 06:38:38;;;;;;;3.13;1.70;;;;;;;25.75;100.00;98542.41;5091596;28;20423;-55
2022/07/19 06:41:05;;;;;;;2.58;1.63;;;;;;;26.01;100.00;98612.84;5091780;28;20058;-56
2022/07/19 06:43:32;;;;;;;3.42;1.70;;;;;;;25.95;100.00;98656.91;5091452;28;20048;-57
2022/07/19 06:45:58;;;;;;;2.72;1.48;;;;;;;25.43;100.00;98664.81;5091794;28;20052;-56
2022/07/19 06:48:25;;;;;;;3.17;1.40;;;;;;;25.41;100.00;98593.56;5091380;28;20466;-54
2022/07/19 06:50:52;;;;;;;3.28;1.75;;;;;;;25.61;100.00;98602.13;5091625;28;20142;-54
2022/07/19 06:53:18;;;;;;;3.00;2.30;;;;;;;25.64;100.00;98654.50;5091455;28;20044;-57
2022/07/19 06:55:44;;;;;;;2.38;1.52;;;;;;;26.52;100.00;98700.84;5091411;28;20098;-57
2022/07/19 06:58:10;;;;;;;3.25;1.65;;;;;;;26.73;100.00;98702.50;5091477;28;20044;-57
2022/07/19 07:00:37;;;;;;;2.28;1.20;;;;;;;27.06;100.00;98752.13;5091484;28;20052;-56
2022/07/19 07:03:03;;;;;;;2.08;1.33;;;;;;;27.65;100.00;98770.88;5091502;28;20052;-56
2022/07/19 07:05:30;;;;;;;2.17;1.65;;;;;;;27.84;100.00;98772.19;5091613;28;20052;-55
2022/07/19 07:07:56;;;;;;;3.85;1.40;;;;;;;27.93;100.00;98785.38;5091653;28;20442;-54
2022/07/19 07:10:23;;;;;;;2.85;1.40;;;;;;;28.45;100.00;98810.84;5091397;28;20058;-56
2022/07/19 07:12:49;;;;;;;2.40;1.30;;;;;;;28.66;100.00;98810.81;5091308;28;20052;-55
2022/07/19 07:15:15;;;;;;;5.28;1.40;;;;;;;26.75;100.00;98778.69;5091032;28;20048;-55
2022/07/19 07:17:42;;;;;;;1.52;1.23;;;;;;;27.68;100.00;98804.47;5091160;28;20138;-55
2022/07/19 07:20:09;;;;;;;3.50;1.55;;;;;;;28.31;100.00;98809.66;5091068;28;20567;-58
2022/07/19 07:22:37;;;;;;;2.85;1.50;;;;;;;27.98;100.00;98795.94;5090951;28;20052;-56
2022/07/19 07:25:05;;;;;;;1.30;1.20;;;;;;;27.36;100.00;98788.66;5090884;28;20060;-55
2022/07/19 07:27:31;;;;;;;2.35;1.30;;;;;;;25.59;100.00;98764.63;5090759;28;20143;-55
2022/07/19 07:29:57;;;;;;;2.40;1.02;;;;;;;25.87;100.00;98745.59;5090986;28;20538;-54
2022/07/19 07:32:26;;;;;;;1.58;1.23;;;;;;;26.86;100.00;98778.13;5090799;28;20052;-55
2022/07/19 07:34:53;;;;;;;1.92;1.00;;;;;;;27.33;100.00;98772.75;5090942;28;20048;-55
2022/07/19 07:37:19;;;;;;;3.10;1.40;;;;;;;27.77;100.00;98802.84;5090784;28;20052;-55
2022/07/19 07:39:46;;;;;;;1.67;1.20;;;;;;;27.66;100.00;98845.69;5090920;28;20044;-53
2022/07/19 07:42:14;;;;;;;1.48;1.30;;;;;;;28.07;100.00;98832.44;5090341;28;20458;-52
2022/07/19 07:44:40;;;;;;;1.67;1.08;;;;;;;27.18;100.00;98765.09;5090665;28;20107;-56
2022/07/19 07:47:08;;;;;;;1.80;0.80;;;;;;;26.94;100.00;98778.50;5090657;28;20131;-55
2022/07/19 07:49:34;;;;;;;2.53;1.30;;;;;;;27.26;100.00;98818.97;5090756;28;20408;-56
2022/07/19 07:52:00;;;;;;;4.03;1.27;;;;;;;28.07;100.00;98826.78;5090564;28;20048;-54
2022/07/19 07:54:27;;;;;;;2.33;1.08;;;;;;;28.15;100.00;98883.50;5090272;28;20181;-56
2022/07/19 07:56:53;;;;;;;3.45;1.40;;;;;;;27.94;100.00;98873.50;5090381;28;20126;-56
2022/07/19 07:59:20;;;;;;;1.27;1.17;;;;;;;28.03;100.00;98876.94;5090350;28;20526;-54
2022/07/19 08:01:46;;;;;;;2.35;1.20;;;;;;;28.68;100.00;98868.28;5090515;28;20051;-56
2022/07/19 08:04:12;;;;;;;1.27;1.17;;;;;;;28.18;100.00;98862.03;5090429;28;20121;-57
2022/07/19 08:06:38;;;;;;;2.72;1.20;;;;;;;27.53;100.00;98826.28;5090589;28;20044;-56
2022/07/19 08:09:05;;;;;;;3.13;1.17;;;;;;;28.02;100.00;98798.53;5090236;28;20048;-54
2022/07/19 08:11:32;;;;;;;2.78;1.20;;;;;;;28.53;100.00;98830.94;5090456;28;20051;-54
2022/07/19 08:13:58;;;;;;;4.68;1.55;;;;;;;28.69;100.00;98883.94;5090099;28;20093;-57
2022/07/19 08:16:25;;;;;;;8.82;1.65;;;;;;;28.02;100.00;98881.00;5090106;28;20052;-57
2022/07/19 08:18:51;;;;;;;2.30;1.10;;;;;;;28.25;100.00;98901.06;5090255;28;20408;-56
2022/07/19 08:21:17;;;;;;;2.05;1.20;;;;;;;28.69;100.00;98917.78;5090073;28;20562;-54
2022/07/19 08:23:44;;;;;;;2.58;1.08;;;;;;;29.19;100.00;98919.59;5090408;28;20048;-58
2022/07/19 08:26:10;;;;;;;2.55;1.17;;;;;;;29.28;100.00;98910.97;5090160;28;20055;-56
2022/07/19 08:28:36;;;;;;;1.83;0.90;;;;;;;28.47;100.00;98878.03;5090021;28;20538;-56
2022/07/19 08:31:03;;;;;;;2.40;1.33;;;;;;;27.64;100.00;98825.66;5089941;28;20055;-53
2022/07/19 08:33:29;;;;;;;3.20;1.30;;;;;;;28.12;100.00;98812.00;5090183;28;20051;-53
2022/07/19 08:35:55;;;;;;;1.90;1.15;;;;;;;28.48;100.00;98877.53;5089884;28;20054;-57
2022/07/19 08:38:22;;;;;;;1.67;1.45;;;;;;;28.25;100.00;98909.50;5089969;28;20054;-56
2022/07/19 08:40:51;;;;;;;4.13;1.35;;;;;;;28.76;100.00;98913.75;5089755;28;20052;-55
2022/07/19 08:43:18;;;;;;;1.73;1.20;;;;;;;27.70;100.00;98885.66;5089949;28;20051;-54
2022/07/19 08:45:44;;;;;;;2.42;1.23;;;;;;;28.07;100.00;98894.41;5089984;28;20052;-56
2022/07/19 08:48:13;;;;;;;1.80;1.20;;;;;;;27.89;100.00;98891.84;5089690;28;20400;-56
2022/07/19 08:50:40;;;;;;;2.67;1.00;;;;;;;28.60;100.00;98923.56;5089764;28;20150;-57
2022/07/19 08:53:06;;;;;;;3.03;1.27;;;;;;;29.01;100.00;98890.44;5089388;28;20055;-56
2022/07/19 08:55:33;;;;;;;1.20;0.93;;;;;;;28.64;100.00;98903.63;5089241;28;20055;-56
2022/07/19 08:58:01;;;;;;;1.20;1.10;;;;;;;29.36;100.00;98920.56;5089619;28;20044;-57
2022/07/19 09:00:28;;;;;;;1.17;0.98;;;;;;;29.14;100.00;98945.75;5089804;28;20070;-56
2022/07/19 09:02:57;;;;;;;3.53;1.17;;;;;;;29.63;100.00;98941.84;5089802;28;20499;-57
2022/07/19 09:05:25;;;;;;;1.17;0.90;;;;;;;29.77;100.00;98945.81;5089902;28;20465;-56
2022/07/19 09:08:04;;;;;;;0.93;0.80;;;;;;;29.28;100.00;98894.78;5089525;28;20562;-58
2022/07/19 09:10:32;;;;;;;0.93;0.80;;;;;;;28.74;100.00;98899.38;5089293;28;20055;-56
2022/07/19 09:13:01;;;;;;;4.80;1.20;;;;;;;28.75;100.00;98856.56;5089444;28;20048;-57
2022/07/19 09:15:38;;;;;;;1.42;0.90;;;;;;;28.50;100.00;98860.91;5089317;28;20048;-56
2022/07/19 09:18:09;;;;;;;1.50;0.98;;;;;;;29.35;100.00;98870.97;5089483;28;20052;-56
2022/07/19 09:20:37;;;;;;;2.40;0.90;;;;;;;29.29;100.00;98909.69;5089294;28;20054;-58
2022/07/19 09:23:04;;;;;;;2.42;1.05;;;;;;;28.64;100.00;98904.38;5089224;28;20059;-57
2022/07/19 09:25:35;;;;;;;1.58;1.00;;;;;;;28.84;100.00;98876.16;5089378;28;20101;-58
2022/07/19 09:28:02;;;;;;;2.47;1.30;;;;;;;27.48;100.00;98829.78;5089470;28;20080;-54
2022/07/19 09:30:37;;;;;;;2.75;1.30;;;;;;;27.39;100.00;98798.94;5089231;28;20056;-51
2022/07/19 09:33:22;;;;;;;3.22;1.13;;;;;;;26.86;100.00;98718.31;5089347;28;20116;-55
2022/07/19 09:35:50;;;;;;;5.10;1.42;;;;;;;26.85;100.00;98725.94;5089283;28;20139;-56
2022/07/19 09:38:26;;;;;;;2.28;1.25;;;;;;;26.61;100.00;98726.06;5089389;28;20052;-57
2022/07/19 09:40:54;;;;;;;2.08;1.55;;;;;;;26.31;100.00;98673.91;5089048;28;20134;-56
2022/07/19 09:43:24;;;;;;;1.63;1.10;;;;;;;26.81;100.00;98708.50;5089040;28;20056;-56
2022/07/19 09:45:51;;;;;;;1.45;1.35;;;;;;;27.74;100.00;98689.09;5089191;28;20054;-57
2022/07/19 09:48:18;;;;;;;1.27;0.93;;;;;;;27.65;100.00;98788.56;5089140;28;20493;-55
2022/07/19 09:50:48;;;;;;;3.60;1.45;;;;;;;28.30;100.00;98832.72;5088818;28;20052;-57
2022/07/19 09:53:16;;;;;;;2.45;1.23;;;;;;;29.15;100.00;98854.91;5088873;28;20063;-56
2022/07/19 09:55:42;;;;;;;3.65;1.60;;;;;;;29.63;100.00;98857.13;5088819;28;20454;-56
2022/07/19 09:58:10;;;;;;;2.00;1.15;;;;;;;30.15;100.00;98882.31;5088867;28;20411;-57
2022/07/19 10:00:38;;;;;;;1.35;1.25;;;;;;;30.17;100.00;98874.13;5088745;28;20048;-57
2022/07/19 10:03:07;;;;;;;3.08;1.40;;;;;;;30.48;100.00;98859.09;5088774;28;20525;-59
2022/07/19 10:05:34;;;;;;;2.70;1.10;;;;;;;30.64;100.00;98933.22;5090600;28;20070;-55
2022/07/19 10:08:01;;;;;;;3.17;1.10;;;;;;;29.88;100.00;98908.38;5092427;28;20051;-57
2022/07/19 10:10:30;;;;;;;3.22;1.00;;;;;;;28.57;100.00;98863.28;5092308;28;20557;-54
2022/07/19 10:12:58;;;;;;;1.25;1.15;;;;;;;27.34;100.00;98830.59;5092256;28;20551;-55
2022/07/19 10:15:25;;;;;;;6.88;1.40;;;;;;;26.94;100.00;98747.56;5092158;28;20154;-54
2022/07/19 10:18:01;;;;;;;3.20;1.27;;;;;;;26.28;100.00;98700.94;5092204;28;20048;-55
2022/07/19 10:20:29;;;;;;;3.28;2.22;;;;;;;26.22;100.00;98655.84;5092067;28;20052;-57
2022/07/19 10:22:59;;;;;;;3.90;1.85;;;;;;;26.64;100.00;98685.72;5092171;28;20453;-53
2022/07/19 10:25:36;;;;;;;1.77;1.65;;;;;;;26.85;100.00;98686.56;5091920;28;20048;-56
2022/07/19 10:28:03;;;;;;;2.55;1.05;;;;;;;27.18;100.00;98711.63;5091854;28;20051;-56
2022/07/19 10:30:40;;;;;;;1.48;1.15;;;;;;;27.42;100.00;98714.31;5092021;28;20056;-56
2022/07/19 10:33:27;;;;;;;1.65;1.35;;;;;;;27.34;100.00;98755.38;5091683;28;20052;-55
2022/07/19 10:35:54;;;;;;;3.05;1.40;;;;;;;27.12;100.00;98730.44;5091810;28;20054;-56
2022/07/19 10:38:20;;;;;;;1.50;1.40;;;;;;;26.56;100.00;98686.59;5091832;28;20055;-55
2022/07/19 10:40:48;;;;;;;3.20;1.30;;;;;;;26.68;100.00;98680.69;5091940;28;20073;-57
2022/07/19 10:43:16;;;;;;;1.50;1.40;;;;;;;26.57;100.00;98691.75;5091613;28;20052;-53
2022/07/19 10:46:03;;;;;;;1.23;1.00;;;;;;;26.30;100.00;98673.13;5091622;28;20483;-55
2022/07/19 10:48:36;;;;;;;4.63;1.60;;;;;;;26.65;100.00;98684.47;5091288;28;20050;-57
2022/07/19 10:51:03;;;;;;;3.45;1.30;;;;;;;26.96;100.00;98705.69;5092008;28;20052;-56
2022/07/19 10:54:02;;;;;;;4.63;2.40;;;;;;;27.54;100.00;98700.38;5091429;28;20081;-56
2022/07/19 10:56:34;;;;;;;6.30;1.40;;;;;;;27.34;100.00;98701.91;5091399;28;20094;-57
2022/07/19 10:59:03;;;;;;;6.15;1.38;;;;;;;28.29;100.00;98788.88;5091350;28;20048;-57
2022/07/19 11:01:32;;;;;;;8.57;1.30;;;;;;;28.22;100.00;98792.88;5091236;28;20146;-53
2022/07/19 11:04:24;;;;;;;3.65;1.50;;;;;;;27.69;100.00;98817.31;5091241;28;20075;-56
2022/07/19 11:06:51;;;;;;;3.95;1.27;;;;;;;26.11;100.00;98739.94;5091675;28;20075;-52
2022/07/19 11:09:17;;;;;;;3.00;1.20;;;;;;;26.55;100.00;98671.00;5091620;28;20465;-53
2022/07/19 11:11:44;;;;;;;1.23;1.13;;;;;;;26.43;100.00;98686.91;5091356;28;20988;-55
2022/07/19 11:14:10;;;;;;;1.58;1.25;;;;;;;26.36;100.00;98692.88;5091137;28;20430;-56
2022/07/19 11:16:37;;;;;;;4.40;1.40;;;;;;;26.36;100.00;98631.84;5090370;28;20051;-56
2022/07/19 11:19:04;;;;;;;4.03;1.70;;;;;;;26.57;100.00;98666.47;5091046;28;20189;-56
2022/07/19 11:21:32;;;;;;;1.17;1.08;;;;;;;26.36;100.00;98737.84;5091243;28;20055;-55
2022/07/19 11:23:59;;;;;;;1.38;1.10;;;;;;;25.88;100.00;98702.22;5091498;28;20113;-56